sensor_id;sensor_type;location;lat;lon;timestamp;pressure;altitude;pressure_sealevel;temperature;humidity
49030;BME280;43337;52.070;4.508;2023-04-06T00:00:39;101911.53;;;5.80;98.12
49030;BME280;43337;52.070;4.508;2023-04-06T00:03:04;101905.41;;;5.78;98.30
49030;BME280;43337;52.070;4.508;2023-04-06T00:05:30;101927.19;;;5.80;98.14
49030;BME280;43337;52.070;4.508;2023-04-06T00:07:57;101909.78;;;5.78;98.25
49030;BME280;43337;52.070;4.508;2023-04-06T00:10:22;101917.59;;;5.79;98.13
49030;BME280;43337;52.070;4.508;2023-04-06T00:12:48;101920.22;;;5.79;98.15
49030;BME280;43337;52.070;4.508;2023-04-06T00:15:13;101911.53;;;5.76;98.38
49030;BME280;43337;52.070;4.508;2023-04-06T00:17:39;101909.81;;;5.67;98.16
49030;BME280;43337;52.070;4.508;2023-04-06T00:20:07;101904.63;;;5.62;97.97
49030;BME280;43337;52.070;4.508;2023-04-06T00:22:33;101915.03;;;5.70;98.34
49030;BME280;43337;52.070;4.508;2023-04-06T00:24:59;101908.09;;;5.66;98.55
49030;BME280;43337;52.070;4.508;2023-04-06T00:27:25;101893.31;;;5.62;98.62
49030;BME280;43337;52.070;4.508;2023-04-06T00:29:50;101892.47;;;5.58;98.16
49030;BME280;43337;52.070;4.508;2023-04-06T00:32:15;101894.19;;;5.59;97.94
49030;BME280;43337;52.070;4.508;2023-04-06T00:34:42;101889.00;;;5.58;97.63
49030;BME280;43337;52.070;4.508;2023-04-06T00:37:07;101878.59;;;5.47;97.79
49030;BME280;43337;52.070;4.508;2023-04-06T00:39:33;101887.28;;;5.51;97.73
49030;BME280;43337;52.070;4.508;2023-04-06T00:41:58;101876.00;;;5.43;97.36
49030;BME280;43337;52.070;4.508;2023-04-06T00:44:24;101879.47;;;5.43;97.71
49030;BME280;43337;52.070;4.508;2023-04-06T00:46:49;101878.63;;;5.39;97.07
49030;BME280;43337;52.070;4.508;2023-04-06T00:49:15;101854.28;;;5.28;97.60
49030;BME280;43337;52.070;4.508;2023-04-06T00:51:41;101862.13;;;5.31;96.94
49030;BME280;43337;52.070;4.508;2023-04-06T00:54:06;101869.06;;;5.34;97.00
49030;BME280;43337;52.070;4.508;2023-04-06T00:56:31;101862.13;;;5.34;96.48
49030;BME280;43337;52.070;4.508;2023-04-06T00:58:57;101863.00;;;5.29;96.79
49030;BME280;43337;52.070;4.508;2023-04-06T01:01:23;101848.22;;;5.23;96.63
49030;BME280;43337;52.070;4.508;2023-04-06T01:03:49;101851.69;;;5.27;97.01
49030;BME280;43337;52.070;4.508;2023-04-06T01:06:15;101849.94;;;5.32;96.69
49030;BME280;43337;52.070;4.508;2023-04-06T01:08:41;101845.59;;;5.28;96.64
49030;BME280;43337;52.070;4.508;2023-04-06T01:11:09;101844.72;;;5.32;96.68
49030;BME280;43337;52.070;4.508;2023-04-06T01:13:36;101838.63;;;5.25;97.23
49030;BME280;43337;52.070;4.508;2023-04-06T01:16:02;101840.34;;;5.32;97.02
49030;BME280;43337;52.070;4.508;2023-04-06T01:18:28;101834.25;;;5.30;96.93
49030;BME280;43337;52.070;4.508;2023-04-06T01:20:54;101830.78;;;5.30;97.03
49030;BME280;43337;52.070;4.508;2023-04-06T01:23:19;101828.19;;;5.31;97.07
49030;BME280;43337;52.070;4.508;2023-04-06T01:25:45;101822.97;;;5.28;96.77
49030;BME280;43337;52.070;4.508;2023-04-06T01:28:11;101800.38;;;5.18;97.24
49030;BME280;43337;52.070;4.508;2023-04-06T01:30:37;101824.66;;;5.34;97.14
49030;BME280;43337;52.070;4.508;2023-04-06T01:33:02;101803.81;;;5.29;96.83
49030;BME280;43337;52.070;4.508;2023-04-06T01:35:28;101808.13;;;5.35;97.16
49030;BME280;43337;52.070;4.508;2023-04-06T01:37:54;101812.50;;;5.33;97.65
49030;BME280;43337;52.070;4.508;2023-04-06T01:40:19;101809.00;;;5.35;97.60
49030;BME280;43337;52.070;4.508;2023-04-06T01:42:45;101800.28;;;5.33;97.00
49030;BME280;43337;52.070;4.508;2023-04-06T01:45:11;101791.66;;;5.27;97.50
49030;BME280;43337;52.070;4.508;2023-04-06T01:47:36;101799.44;;;5.34;97.68
49030;BME280;43337;52.070;4.508;2023-04-06T01:50:02;101789.91;;;5.27;97.34
49030;BME280;43337;52.070;4.508;2023-04-06T01:52:30;101789.00;;;5.30;97.55
49030;BME280;43337;52.070;4.508;2023-04-06T01:54:56;101796.81;;;5.33;97.84
49030;BME280;43337;52.070;4.508;2023-04-06T01:57:21;101787.28;;;5.29;97.66
49030;BME280;43337;52.070;4.508;2023-04-06T01:59:47;101784.66;;;5.32;97.73
49030;BME280;43337;52.070;4.508;2023-04-06T02:02:12;101788.13;;;5.35;98.28
49030;BME280;43337;52.070;4.508;2023-04-06T02:04:38;101772.50;;;5.28;98.48
49030;BME280;43337;52.070;4.508;2023-04-06T02:07:03;101782.88;;;5.38;98.38
49030;BME280;43337;52.070;4.508;2023-04-06T02:09:29;101771.59;;;5.35;98.31
49030;BME280;43337;52.070;4.508;2023-04-06T02:11:55;101782.88;;;5.37;98.17
49030;BME280;43337;52.070;4.508;2023-04-06T02:14:23;101778.50;;;5.41;98.16
49030;BME280;43337;52.070;4.508;2023-04-06T02:16:49;101766.34;;;5.36;98.04
49030;BME280;43337;52.070;4.508;2023-04-06T02:19:14;101767.19;;;5.40;98.34
49030;BME280;43337;52.070;4.508;2023-04-06T02:21:39;101762.00;;;5.38;97.92
49030;BME280;43337;52.070;4.508;2023-04-06T02:24:05;101758.47;;;5.38;98.96
49030;BME280;43337;52.070;4.508;2023-04-06T02:26:32;101764.56;;;5.43;98.07
49030;BME280;43337;52.070;4.508;2023-04-06T02:28:57;101759.34;;;5.42;98.13
49030;BME280;43337;52.070;4.508;2023-04-06T02:31:22;101756.78;;;5.38;98.18
49030;BME280;43337;52.070;4.508;2023-04-06T02:34:09;101756.78;;;5.38;98.11
49030;BME280;43337;52.070;4.508;2023-04-06T02:36:37;101749.78;;;5.37;98.42
49030;BME280;43337;52.070;4.508;2023-04-06T02:39:02;101747.19;;;5.37;98.58
49030;BME280;43337;52.070;4.508;2023-04-06T02:41:28;101752.41;;;5.37;98.71
49030;BME280;43337;52.070;4.508;2023-04-06T02:43:53;101742.84;;;5.36;98.86
49030;BME280;43337;52.070;4.508;2023-04-06T02:46:19;101741.16;;;5.31;99.15
49030;BME280;43337;52.070;4.508;2023-04-06T02:48:45;101735.94;;;5.28;98.75
49030;BME280;43337;52.070;4.508;2023-04-06T02:51:10;101741.13;;;5.32;99.19
49030;BME280;43337;52.070;4.508;2023-04-06T02:53:36;101737.63;;;5.36;98.91
49030;BME280;43337;52.070;4.508;2023-04-06T02:56:01;101715.94;;;5.25;99.07
49030;BME280;43337;52.070;4.508;2023-04-06T02:58:26;101738.50;;;5.38;99.46
49030;BME280;43337;52.070;4.508;2023-04-06T03:00:52;101712.44;;;5.26;99.66
49030;BME280;43337;52.070;4.508;2023-04-06T03:03:17;101730.66;;;5.37;100.00
49030;BME280;43337;52.070;4.508;2023-04-06T03:05:43;101722.84;;;5.35;99.69
49030;BME280;43337;52.070;4.508;2023-04-06T03:08:08;101729.78;;;5.36;99.42
49030;BME280;43337;52.070;4.508;2023-04-06T03:10:33;101726.28;;;5.37;99.37
49030;BME280;43337;52.070;4.508;2023-04-06T03:12:59;101702.03;;;5.23;99.26
49030;BME280;43337;52.070;4.508;2023-04-06T03:15:24;101715.88;;;5.33;100.00
49030;BME280;43337;52.070;4.508;2023-04-06T03:17:49;101701.09;;;5.32;99.84
49030;BME280;43337;52.070;4.508;2023-04-06T03:20:16;101707.19;;;5.32;100.00
49030;BME280;43337;52.070;4.508;2023-04-06T03:22:41;101711.50;;;5.39;100.00
49030;BME280;43337;52.070;4.508;2023-04-06T03:25:06;101709.75;;;5.37;100.00
49030;BME280;43337;52.070;4.508;2023-04-06T03:27:32;101701.03;;;5.38;99.73
49030;BME280;43337;52.070;4.508;2023-04-06T03:29:57;101708.00;;;5.42;100.00
49030;BME280;43337;52.070;4.508;2023-04-06T03:32:23;101706.28;;;5.39;100.00
49030;BME280;43337;52.070;4.508;2023-04-06T03:34:49;101708.03;;;5.39;100.00
49030;BME280;43337;52.070;4.508;2023-04-06T03:37:17;101692.38;;;5.33;100.00
49030;BME280;43337;52.070;4.508;2023-04-06T03:39:43;101701.94;;;5.38;100.00
49030;BME280;43337;52.070;4.508;2023-04-06T03:42:09;101699.31;;;5.37;100.00
49030;BME280;43337;52.070;4.508;2023-04-06T03:44:34;101704.53;;;5.37;100.00
49030;BME280;43337;52.070;4.508;2023-04-06T03:47:00;101688.91;;;5.32;100.00
49030;BME280;43337;52.070;4.508;2023-04-06T03:49:26;101687.16;;;5.33;100.00
49030;BME280;43337;52.070;4.508;2023-04-06T03:51:52;101691.50;;;5.35;100.00
49030;BME280;43337;52.070;4.508;2023-04-06T03:54:18;101688.00;;;5.36;100.00
49030;BME280;43337;52.070;4.508;2023-04-06T03:56:44;101694.94;;;5.37;100.00
49030;BME280;43337;52.070;4.508;2023-04-06T03:59:09;101684.56;;;5.34;100.00
49030;BME280;43337;52.070;4.508;2023-04-06T04:01:35;101694.97;;;5.39;100.00
49030;BME280;43337;52.070;4.508;2023-04-06T04:04:00;101680.16;;;5.38;100.00
49030;BME280;43337;52.070;4.508;2023-04-06T04:06:26;101697.56;;;5.39;100.00
49030;BME280;43337;52.070;4.508;2023-04-06T04:08:52;101668.09;;;5.22;100.00
49030;BME280;43337;52.070;4.508;2023-04-06T04:11:17;101692.34;;;5.39;100.00
49030;BME280;43337;52.070;4.508;2023-04-06T04:13:42;101694.06;;;5.40;100.00
49030;BME280;43337;52.070;4.508;2023-04-06T04:16:08;101684.53;;;5.36;100.00
49030;BME280;43337;52.070;4.508;2023-04-06T04:18:33;101680.13;;;5.41;100.00
49030;BME280;43337;52.070;4.508;2023-04-06T04:20:59;101682.75;;;5.43;100.00
49030;BME280;43337;52.070;4.508;2023-04-06T04:23:24;101684.50;;;5.42;100.00
49030;BME280;43337;52.070;4.508;2023-04-06T04:25:51;101679.28;;;5.39;100.00
49030;BME280;43337;52.070;4.508;2023-04-06T04:28:16;101685.31;;;5.46;100.00
49030;BME280;43337;52.070;4.508;2023-04-06T04:30:41;101691.38;;;5.51;100.00
49030;BME280;43337;52.070;4.508;2023-04-06T04:33:07;101683.59;;;5.46;100.00
49030;BME280;43337;52.070;4.508;2023-04-06T04:35:32;101681.81;;;5.48;100.00
49030;BME280;43337;52.070;4.508;2023-04-06T04:37:57;101681.78;;;5.53;100.00
49030;BME280;43337;52.070;4.508;2023-04-06T04:40:23;101686.16;;;5.54;100.00
49030;BME280;43337;52.070;4.508;2023-04-06T04:42:49;101687.00;;;5.53;100.00
49030;BME280;43337;52.070;4.508;2023-04-06T04:45:16;101686.16;;;5.54;100.00
49030;BME280;43337;52.070;4.508;2023-04-06T04:47:41;101682.66;;;5.55;100.00
49030;BME280;43337;52.070;4.508;2023-04-06T04:50:07;101682.63;;;5.58;100.00
49030;BME280;43337;52.070;4.508;2023-04-06T04:52:32;101680.84;;;5.60;100.00
49030;BME280;43337;52.070;4.508;2023-04-06T04:54:58;101672.19;;;5.58;100.00
49030;BME280;43337;52.070;4.508;2023-04-06T04:57:23;101669.53;;;5.59;100.00
49030;BME280;43337;52.070;4.508;2023-04-06T04:59:48;101679.97;;;5.62;100.00
49030;BME280;43337;52.070;4.508;2023-04-06T05:02:15;101676.50;;;5.62;100.00
49030;BME280;43337;52.070;4.508;2023-04-06T05:04:40;101669.53;;;5.62;100.00
49030;BME280;43337;52.070;4.508;2023-04-06T05:07:07;101677.28;;;5.70;100.00
49030;BME280;43337;52.070;4.508;2023-04-06T05:09:33;101663.44;;;5.62;100.00
49030;BME280;43337;52.070;4.508;2023-04-06T05:11:59;101678.13;;;5.72;100.00
49030;BME280;43337;52.070;4.508;2023-04-06T05:14:25;101660.75;;;5.70;100.00
49030;BME280;43337;52.070;4.508;2023-04-06T05:16:50;101659.84;;;5.72;100.00
49030;BME280;43337;52.070;4.508;2023-04-06T05:19:16;101658.09;;;5.74;100.00
49030;BME280;43337;52.070;4.508;2023-04-06T05:21:41;101662.38;;;5.81;100.00
49030;BME280;43337;52.070;4.508;2023-04-06T05:24:07;101658.84;;;5.88;100.00
49030;BME280;43337;52.070;4.508;2023-04-06T05:26:32;101663.16;;;5.94;100.00
49030;BME280;43337;52.070;4.508;2023-04-06T05:28:57;101661.34;;;5.99;100.00
49030;BME280;43337;52.070;4.508;2023-04-06T05:31:23;101662.16;;;6.06;100.00
49030;BME280;43337;52.070;4.508;2023-04-06T05:33:48;101650.84;;;6.05;100.00
49030;BME280;43337;52.070;4.508;2023-04-06T05:36:14;101655.13;;;6.11;100.00
49030;BME280;43337;52.070;4.508;2023-04-06T05:38:39;101655.09;;;6.14;100.00
49030;BME280;43337;52.070;4.508;2023-04-06T05:41:05;101656.78;;;6.18;100.00
49030;BME280;43337;52.070;4.508;2023-04-06T05:43:30;101642.00;;;6.17;100.00
49030;BME280;43337;52.070;4.508;2023-04-06T05:45:56;101629.84;;;6.13;100.00
49030;BME280;43337;52.070;4.508;2023-04-06T05:48:21;101653.16;;;6.30;100.00
49030;BME280;43337;52.070;4.508;2023-04-06T05:50:50;101647.13;;;6.28;100.00
49030;BME280;43337;52.070;4.508;2023-04-06T05:53:16;101655.72;;;6.36;100.00
49030;BME280;43337;52.070;4.508;2023-04-06T05:55:41;101648.75;;;6.36;100.00
49030;BME280;43337;52.070;4.508;2023-04-06T05:58:06;101654.00;;;6.35;100.00
49030;BME280;43337;52.070;4.508;2023-04-06T06:00:32;101661.75;;;6.43;100.00
49030;BME280;43337;52.070;4.508;2023-04-06T06:02:57;101656.50;;;6.44;100.00
49030;BME280;43337;52.070;4.508;2023-04-06T06:05:23;101648.66;;;6.44;100.00
49030;BME280;43337;52.070;4.508;2023-04-06T06:07:48;101638.22;;;6.41;100.00
49030;BME280;43337;52.070;4.508;2023-04-06T06:10:14;101652.03;;;6.54;100.00
49030;BME280;43337;52.070;4.508;2023-04-06T06:12:39;101643.28;;;6.55;100.00
49030;BME280;43337;52.070;4.508;2023-04-06T06:15:05;101647.63;;;6.57;100.00
49030;BME280;43337;52.070;4.508;2023-04-06T06:17:31;101653.63;;;6.66;100.00
49030;BME280;43337;52.070;4.508;2023-04-06T06:19:56;101656.19;;;6.70;100.00
49030;BME280;43337;52.070;4.508;2023-04-06T06:22:22;101643.97;;;6.69;100.00
49030;BME280;43337;52.070;4.508;2023-04-06T06:24:47;101656.97;;;6.77;100.00
49030;BME280;43337;52.070;4.508;2023-04-06T06:27:12;101646.44;;;6.80;100.00
49030;BME280;43337;52.070;4.508;2023-04-06T06:29:39;101651.63;;;6.84;100.00
49030;BME280;43337;52.070;4.508;2023-04-06T06:32:05;101650.69;;;6.87;100.00
49030;BME280;43337;52.070;4.508;2023-04-06T06:34:30;101649.84;;;6.87;100.00
49030;BME280;43337;52.070;4.508;2023-04-06T06:36:55;101649.72;;;6.94;100.00
49030;BME280;43337;52.070;4.508;2023-04-06T06:39:21;101647.97;;;6.96;100.00
49030;BME280;43337;52.070;4.508;2023-04-06T06:41:47;101652.22;;;7.02;100.00
49030;BME280;43337;52.070;4.508;2023-04-06T06:44:12;101647.84;;;7.04;100.00
49030;BME280;43337;52.070;4.508;2023-04-06T06:46:37;101654.69;;;7.13;100.00
49030;BME280;43337;52.070;4.508;2023-04-06T06:49:03;101661.59;;;7.18;100.00
49030;BME280;43337;52.070;4.508;2023-04-06T06:51:28;101644.97;;;7.21;100.00
49030;BME280;43337;52.070;4.508;2023-04-06T06:53:55;101623.31;;;7.09;100.00
49030;BME280;43337;52.070;4.508;2023-04-06T06:56:21;101650.09;;;7.28;100.00
49030;BME280;43337;52.070;4.508;2023-04-06T06:58:47;101649.13;;;7.34;100.00
49030;BME280;43337;52.070;4.508;2023-04-06T07:01:12;101636.84;;;7.38;100.00
49030;BME280;43337;52.070;4.508;2023-04-06T07:03:38;101642.88;;;7.41;100.00
49030;BME280;43337;52.070;4.508;2023-04-06T07:06:03;101638.47;;;7.45;100.00
49030;BME280;43337;52.070;4.508;2023-04-06T07:08:29;101645.38;;;7.49;100.00
49030;BME280;43337;52.070;4.508;2023-04-06T07:10:54;101641.84;;;7.51;100.00
49030;BME280;43337;52.070;4.508;2023-04-06T07:13:23;101642.66;;;7.55;100.00
49030;BME280;43337;52.070;4.508;2023-04-06T07:15:49;101630.38;;;7.57;100.00
49030;BME280;43337;52.070;4.508;2023-04-06T07:18:16;101638.16;;;7.63;100.00
49030;BME280;43337;52.070;4.508;2023-04-06T07:20:41;101625.09;;;7.60;100.00
49030;BME280;43337;52.070;4.508;2023-04-06T07:23:07;101630.16;;;7.71;100.00
49030;BME280;43337;52.070;4.508;2023-04-06T07:25:32;101637.06;;;7.76;100.00
49030;BME280;43337;52.070;4.508;2023-04-06T07:27:58;101622.97;;;7.82;100.00
49030;BME280;43337;52.070;4.508;2023-04-06T07:30:23;101622.91;;;7.85;100.00
49030;BME280;43337;52.070;4.508;2023-04-06T07:32:51;101624.53;;;7.92;100.00
49030;BME280;43337;52.070;4.508;2023-04-06T07:35:16;101608.75;;;7.94;100.00
49030;BME280;43337;52.070;4.508;2023-04-06T07:37:42;101620.78;;;8.05;100.00
49030;BME280;43337;52.070;4.508;2023-04-06T07:40:08;101626.78;;;8.11;100.00
49030;BME280;43337;52.070;4.508;2023-04-06T07:42:33;101596.41;;;8.00;100.00
49030;BME280;43337;52.070;4.508;2023-04-06T07:44:59;101619.59;;;8.20;100.00
49030;BME280;43337;52.070;4.508;2023-04-06T07:47:24;101602.25;;;8.13;100.00
49030;BME280;43337;52.070;4.508;2023-04-06T07:49:50;101578.00;;;8.02;100.00
49030;BME280;43337;52.070;4.508;2023-04-06T07:52:15;101609.06;;;8.23;100.00
49030;BME280;43337;52.070;4.508;2023-04-06T07:54:41;101603.81;;;8.23;100.00
49030;BME280;43337;52.070;4.508;2023-04-06T07:57:07;101620.19;;;8.35;100.00
49030;BME280;43337;52.070;4.508;2023-04-06T07:59:32;101620.16;;;8.36;100.00
49030;BME280;43337;52.070;4.508;2023-04-06T08:01:58;101619.28;;;8.39;100.00
49030;BME280;43337;52.070;4.508;2023-04-06T08:04:23;101619.22;;;8.42;100.00
49030;BME280;43337;52.070;4.508;2023-04-06T08:06:48;101620.00;;;8.45;100.00
49030;BME280;43337;52.070;4.508;2023-04-06T08:09:14;101623.50;;;8.46;100.00
49030;BME280;43337;52.070;4.508;2023-04-06T08:11:39;101594.94;;;8.29;100.00
49030;BME280;43337;52.070;4.508;2023-04-06T08:14:05;101592.19;;;8.35;100.00
49030;BME280;43337;52.070;4.508;2023-04-06T08:16:31;101608.72;;;8.42;100.00
49030;BME280;43337;52.070;4.508;2023-04-06T08:18:56;101599.09;;;8.42;100.00
49030;BME280;43337;52.070;4.508;2023-04-06T08:21:22;101609.41;;;8.50;100.00
49030;BME280;43337;52.070;4.508;2023-04-06T08:23:47;101627.41;;;8.67;100.00
49030;BME280;43337;52.070;4.508;2023-04-06T08:26:12;101635.25;;;8.68;100.00
49030;BME280;43337;52.070;4.508;2023-04-06T08:28:38;101634.38;;;8.69;100.00
49030;BME280;43337;52.070;4.508;2023-04-06T08:31:05;101622.28;;;8.62;100.00
49030;BME280;43337;52.070;4.508;2023-04-06T08:33:30;101611.03;;;8.55;100.00
49030;BME280;43337;52.070;4.508;2023-04-06T08:35:56;101628.31;;;8.66;100.00
49030;BME280;43337;52.070;4.508;2023-04-06T08:38:21;101631.75;;;8.68;100.00
49030;BME280;43337;52.070;4.508;2023-04-06T08:40:47;101631.75;;;8.69;100.00
49030;BME280;43337;52.070;4.508;2023-04-06T08:43:17;101632.72;;;8.64;100.00
49030;BME280;43337;52.070;4.508;2023-04-06T08:45:44;101616.97;;;8.64;100.00
49030;BME280;43337;52.070;4.508;2023-04-06T08:48:11;101618.69;;;8.66;100.00
49030;BME280;43337;52.070;4.508;2023-04-06T08:50:38;101593.63;;;8.51;100.00
49030;BME280;43337;52.070;4.508;2023-04-06T08:53:05;101627.34;;;8.70;100.00
49030;BME280;43337;52.070;4.508;2023-04-06T08:55:31;101625.53;;;8.73;100.00
49030;BME280;43337;52.070;4.508;2023-04-06T08:57:56;101608.34;;;8.59;100.00
49030;BME280;43337;52.070;4.508;2023-04-06T09:00:24;101620.41;;;8.67;100.00
49030;BME280;43337;52.070;4.508;2023-04-06T09:02:53;101610.81;;;8.65;100.00
49030;BME280;43337;52.070;4.508;2023-04-06T09:05:20;101618.56;;;8.71;100.00
49030;BME280;43337;52.070;4.508;2023-04-06T09:07:48;101622.06;;;8.71;100.00
49030;BME280;43337;52.070;4.508;2023-04-06T09:10:13;101615.94;;;8.71;100.00
49030;BME280;43337;52.070;4.508;2023-04-06T09:12:40;101627.31;;;8.71;100.00
49030;BME280;43337;52.070;4.508;2023-04-06T09:15:06;101618.63;;;8.69;100.00
49030;BME280;43337;52.070;4.508;2023-04-06T09:17:43;101628.09;;;8.75;100.00
49030;BME280;43337;52.070;4.508;2023-04-06T09:20:11;101612.41;;;8.73;100.00
49030;BME280;43337;52.070;4.508;2023-04-06T09:22:37;101627.13;;;8.79;100.00
49030;BME280;43337;52.070;4.508;2023-04-06T09:25:04;101600.31;;;8.66;100.00
49030;BME280;43337;52.070;4.508;2023-04-06T09:27:31;101622.00;;;8.74;100.00
49030;BME280;43337;52.070;4.508;2023-04-06T09:30:08;101607.34;;;8.64;100.00
49030;BME280;43337;52.070;4.508;2023-04-06T09:33:04;101592.00;;;8.46;100.00
49030;BME280;43337;52.070;4.508;2023-04-06T09:35:29;101604.19;;;8.48;100.00
49030;BME280;43337;52.070;4.508;2023-04-06T09:37:56;101591.22;;;8.41;100.00
49030;BME280;43337;52.070;4.508;2023-04-06T09:40:22;101611.13;;;8.51;100.00
49030;BME280;43337;52.070;4.508;2023-04-06T09:42:49;101606.78;;;8.50;100.00
49030;BME280;43337;52.070;4.508;2023-04-06T09:45:17;101613.81;;;8.49;100.00
49030;BME280;43337;52.070;4.508;2023-04-06T09:47:44;101613.81;;;8.49;100.00
49030;BME280;43337;52.070;4.508;2023-04-06T09:50:11;101605.19;;;8.43;100.00
49030;BME280;43337;52.070;4.508;2023-04-06T09:52:45;101599.16;;;8.38;100.00
49030;BME280;43337;52.070;4.508;2023-04-06T09:55:20;101598.31;;;8.36;100.00
49030;BME280;43337;52.070;4.508;2023-04-06T09:57:57;101599.28;;;8.31;100.00
49030;BME280;43337;52.070;4.508;2023-04-06T10:00:25;101598.41;;;8.29;100.00
49030;BME280;43337;52.070;4.508;2023-04-06T10:03:14;101591.56;;;8.24;100.00
49030;BME280;43337;52.070;4.508;2023-04-06T10:05:53;101602.06;;;8.22;100.00
49030;BME280;43337;52.070;4.508;2023-04-06T10:08:22;101587.28;;;8.20;100.00
49030;BME280;43337;52.070;4.508;2023-04-06T10:10:50;101585.63;;;8.16;100.00
49030;BME280;43337;52.070;4.508;2023-04-06T10:13:17;101586.47;;;8.16;100.00
49030;BME280;43337;52.070;4.508;2023-04-06T10:15:44;101587.31;;;8.17;100.00
49030;BME280;43337;52.070;4.508;2023-04-06T10:18:10;101587.28;;;8.20;100.00
49030;BME280;43337;52.070;4.508;2023-04-06T10:20:46;101587.28;;;8.18;100.00
49030;BME280;43337;52.070;4.508;2023-04-06T10:23:19;101589.06;;;8.18;100.00
49030;BME280;43337;52.070;4.508;2023-04-06T10:25:59;101584.75;;;8.15;100.00
49030;BME280;43337;52.070;4.508;2023-04-06T10:28:26;101584.75;;;8.15;100.00
49030;BME280;43337;52.070;4.508;2023-04-06T10:31:00;101566.47;;;8.11;100.00
49030;BME280;43337;52.070;4.508;2023-04-06T10:33:26;101579.56;;;8.11;100.00
49030;BME280;43337;52.070;4.508;2023-04-06T10:35:51;101545.09;;;7.87;100.00
49030;BME280;43337;52.070;4.508;2023-04-06T10:38:17;101538.13;;;7.86;100.00
49030;BME280;43337;52.070;4.508;2023-04-06T10:40:47;101548.50;;;7.91;100.00
49030;BME280;43337;52.070;4.508;2023-04-06T10:43:22;101565.75;;;8.02;100.00
49030;BME280;43337;52.070;4.508;2023-04-06T10:45:55;101547.59;;;7.93;100.00
49030;BME280;43337;52.070;4.508;2023-04-06T10:48:21;101564.03;;;8.01;100.00
49030;BME280;43337;52.070;4.508;2023-04-06T10:50:50;101553.44;;;8.06;100.00
49030;BME280;43337;52.070;4.508;2023-04-06T10:55:50;101542.19;;;8.01;100.00
49030;BME280;43337;52.070;4.508;2023-04-06T10:58:16;101554.31;;;8.06;100.00
49030;BME280;43337;52.070;4.508;2023-04-06T11:00:45;101550.81;;;8.06;100.00
49030;BME280;43337;52.070;4.508;2023-04-06T11:03:10;101541.28;;;8.03;100.00
49030;BME280;43337;52.070;4.508;2023-04-06T11:05:36;101541.28;;;8.03;100.00
49030;BME280;43337;52.070;4.508;2023-04-06T11:08:02;101542.03;;;8.08;100.00
49030;BME280;43337;52.070;4.508;2023-04-06T11:10:27;101540.28;;;8.09;100.00
49030;BME280;43337;52.070;4.508;2023-04-06T11:12:53;101546.38;;;8.10;100.00
49030;BME280;43337;52.070;4.508;2023-04-06T11:15:20;101544.63;;;8.10;100.00
49030;BME280;43337;52.070;4.508;2023-04-06T11:17:45;101539.41;;;8.08;100.00
49030;BME280;43337;52.070;4.508;2023-04-06T11:20:11;101541.19;;;8.08;100.00
49030;BME280;43337;52.070;4.508;2023-04-06T11:22:53;101545.56;;;8.06;100.00
49030;BME280;43337;52.070;4.508;2023-04-06T11:25:19;101540.47;;;8.00;100.00
49030;BME280;43337;52.070;4.508;2023-04-06T11:27:46;101543.16;;;7.97;100.00
49030;BME280;43337;52.070;4.508;2023-04-06T11:30:13;101537.97;;;7.94;100.00
49030;BME280;43337;52.070;4.508;2023-04-06T11:32:42;101526.69;;;7.90;100.00
49030;BME280;43337;52.070;4.508;2023-04-06T11:35:21;101529.34;;;7.89;100.00
49030;BME280;43337;52.070;4.508;2023-04-06T11:37:58;101520.63;;;7.88;100.00
49030;BME280;43337;52.070;4.508;2023-04-06T11:40:23;101512.88;;;7.82;100.00
49030;BME280;43337;52.070;4.508;2023-04-06T11:42:56;101518.84;;;7.89;100.00
49030;BME280;43337;52.070;4.508;2023-04-06T11:45:22;101518.00;;;7.87;100.00
49030;BME280;43337;52.070;4.508;2023-04-06T11:47:56;101521.38;;;7.93;100.00
49030;BME280;43337;52.070;4.508;2023-04-06T11:50:23;101525.72;;;7.94;100.00
49030;BME280;43337;52.070;4.508;2023-04-06T11:52:58;101515.28;;;7.93;100.00
49030;BME280;43337;52.070;4.508;2023-04-06T11:55:24;101510.03;;;7.93;100.00
49030;BME280;43337;52.070;4.508;2023-04-06T11:57:50;101523.97;;;7.95;100.00
49030;BME280;43337;52.070;4.508;2023-04-06T12:00:17;101496.19;;;7.86;100.00
49030;BME280;43337;52.070;4.508;2023-04-06T12:02:46;101508.38;;;7.89;100.00
49030;BME280;43337;52.070;4.508;2023-04-06T12:05:11;101506.72;;;7.83;100.00
49030;BME280;43337;52.070;4.508;2023-04-06T12:07:37;101504.94;;;7.85;100.00
49030;BME280;43337;52.070;4.508;2023-04-06T12:10:04;101503.25;;;7.82;100.00
49030;BME280;43337;52.070;4.508;2023-04-06T12:12:30;101489.31;;;7.80;100.00
49030;BME280;43337;52.070;4.508;2023-04-06T12:14:56;101492.84;;;7.78;100.00
49030;BME280;43337;52.070;4.508;2023-04-06T12:17:21;101472.97;;;7.68;100.00
49030;BME280;43337;52.070;4.508;2023-04-06T12:19:47;101494.56;;;7.80;100.00
49030;BME280;43337;52.070;4.508;2023-04-06T12:22:12;101475.56;;;7.69;100.00
49030;BME280;43337;52.070;4.508;2023-04-06T12:24:38;101496.28;;;7.80;100.00
49030;BME280;43337;52.070;4.508;2023-04-06T12:27:03;101500.69;;;7.79;100.00
49030;BME280;43337;52.070;4.508;2023-04-06T12:29:29;101492.06;;;7.74;100.00
49030;BME280;43337;52.070;4.508;2023-04-06T12:31:54;101495.53;;;7.76;100.00
49030;BME280;43337;52.070;4.508;2023-04-06T12:34:20;101484.19;;;7.74;100.00
49030;BME280;43337;52.070;4.508;2023-04-06T12:36:45;101491.16;;;7.75;100.00
49030;BME280;43337;52.070;4.508;2023-04-06T12:39:11;101495.41;;;7.81;100.00
49030;BME280;43337;52.070;4.508;2023-04-06T12:41:36;101482.38;;;7.78;100.00
49030;BME280;43337;52.070;4.508;2023-04-06T12:44:02;101492.84;;;7.78;100.00
49030;BME280;43337;52.070;4.508;2023-04-06T12:46:28;101488.53;;;7.75;100.00
49030;BME280;43337;52.070;4.508;2023-04-06T12:48:55;101479.84;;;7.73;100.00
49030;BME280;43337;52.070;4.508;2023-04-06T12:51:22;101480.75;;;7.71;100.00